Time;durP1;ratioP1;P1;durP2;ratioP2;P2;SDS_P1;SDS_P2;PMS_P1;PMS_P2;Temp;Humidity;BMP_temperature;BMP_pressure;BME280_temperature;BME280_humidity;BME280_pressure;Samples;Min_cycle;Max_cycle;Signal;HPM_P1;HPM_P2
2021/04/04 00:01:56;;;;;;;1.90;1.20;;;21.80;36.10;;;;;;5129008;27;20066;-37
2021/04/04 00:04:22;;;;;;;1.27;0.93;;;21.70;36.00;;;;;;5112996;28;20047;-37
2021/04/04 00:06:49;;;;;;;3.78;1.23;;;21.70;36.60;;;;;;5124020;27;20043;-37
2021/04/04 00:09:19;;;;;;;1.85;1.08;;;21.70;36.00;;;;;;5136284;27;20068;-36
2021/04/04 00:11:50;;;;;;;2.30;1.30;;;21.70;36.00;;;;;;5119887;27;20043;-37
2021/04/04 00:14:18;;;;;;;1.90;1.05;;;21.70;36.00;;;;;;5117702;27;20051;-36
2021/04/04 00:16:44;;;;;;;2.50;1.25;;;21.70;36.00;;;;;;5117852;27;20432;-37
2021/04/04 00:19:12;;;;;;;2.97;1.20;;;21.70;36.00;;;;;;5136604;27;20101;-37
2021/04/04 00:21:39;;;;;;;3.20;1.20;;;21.70;36.00;;;;;;5136959;27;20494;-36
2021/04/04 00:24:07;;;;;;;2.50;1.23;;;21.70;36.00;;;;;;5135413;27;20047;-38
2021/04/04 00:26:34;;;;;;;2.33;1.17;;;21.70;36.00;;;;;;5135503;27;20051;-37
2021/04/04 00:29:05;;;;;;;2.35;1.10;;;21.70;36.00;;;;;;5134338;27;20047;-37
2021/04/04 00:31:32;;;;;;;1.48;1.00;;;21.70;36.00;;;;;;5126547;27;20043;-37
2021/04/04 00:33:59;;;;;;;2.83;1.20;;;21.70;36.00;;;;;;5134443;27;20051;-37
2021/04/04 00:36:26;;;;;;;2.85;1.30;;;21.70;36.00;;;;;;5135593;27;20122;-37
2021/04/04 00:38:53;;;;;;;2.05;1.10;;;21.70;36.00;;;;;;5133995;27;20058;-37
2021/04/04 00:41:20;;;;;;;1.20;1.00;;;21.70;36.00;;;;;;5134611;27;20043;-37
2021/04/04 00:43:46;;;;;;;2.05;1.20;;;21.70;36.00;;;;;;5134638;27;20111;-36
2021/04/04 00:46:14;;;;;;;2.75;1.00;;;21.70;36.00;;;;;;5134930;27;20047;-37
2021/04/04 00:48:40;;;;;;;2.28;1.02;;;21.70;36.00;;;;;;5135208;27;20047;-37
2021/04/04 00:51:07;;;;;;;1.50;0.70;;;21.70;36.00;;;;;;5115659;27;20039;-37
2021/04/04 00:53:34;;;;;;;1.67;0.90;;;21.70;36.00;;;;;;5133084;27;20047;-36
2021/04/04 00:56:01;;;;;;;2.35;0.82;;;21.70;36.00;;;;;;5135493;27;20097;-38
2021/04/04 00:58:28;;;;;;;1.45;1.05;;;21.70;36.00;;;;;;5135039;27;20115;-37
2021/04/04 01:00:55;;;;;;;2.08;1.13;;;21.70;36.00;;;;;;5132815;27;20047;-36
2021/04/04 01:03:22;;;;;;;1.60;0.98;;;21.70;36.00;;;;;;5114149;27;20116;-36
2021/04/04 01:05:52;;;;;;;3.28;0.90;;;21.70;36.00;;;;;;5134719;27;20039;-37
2021/04/04 01:08:19;;;;;;;1.95;1.08;;;21.70;35.90;;;;;;5117317;27;20040;-37
2021/04/04 01:10:47;;;;;;;1.52;0.93;;;21.70;36.00;;;;;;5134202;27;20039;-37
2021/04/04 01:13:35;;;;;;;3.35;1.10;;;21.70;35.90;;;;;;5135064;27;20107;-36
2021/04/04 01:16:10;;;;;;;1.55;0.95;;;21.70;36.50;;;;;;5099085;27;20681;-36
2021/04/04 01:18:54;;;;;;;2.88;0.98;;;21.70;35.90;;;;;;5134616;27;20047;-37
2021/04/04 01:21:35;;;;;;;2.22;1.15;;;21.70;35.90;;;;;;5134962;27;20051;-36
2021/04/04 01:24:33;;;;;;;2.13;0.90;;;21.70;35.90;;;;;;5135051;27;20086;-36
2021/04/04 01:27:03;;;;;;;2.63;0.82;;;21.70;35.90;;;;;;5132999;27;20445;-36
2021/04/04 01:29:35;;;;;;;2.53;1.20;;;21.70;35.90;;;;;;5127756;27;20104;-36
2021/04/04 01:32:03;;;;;;;2.22;0.90;;;21.60;35.80;;;;;;5133856;27;20483;-36
2021/04/04 01:34:31;;;;;;;2.03;0.90;;;21.60;35.80;;;;;;5132236;27;20079;-36
2021/04/04 01:37:04;;;;;;;3.30;0.90;;;21.60;35.80;;;;;;5133263;27;20039;-36
2021/04/04 01:39:42;;;;;;;2.97;0.95;;;21.60;35.80;;;;;;5134717;27;20418;-36
2021/04/04 01:42:12;;;;;;;3.55;0.90;;;21.60;35.80;;;;;;5116150;27;20055;-37
2021/04/04 01:44:43;;;;;;;1.83;0.90;;;21.60;35.80;;;;;;5135275;27;20047;-37
2021/04/04 01:47:11;;;;;;;2.55;1.00;;;21.60;35.80;;;;;;5127223;27;20078;-37
2021/04/04 01:49:42;;;;;;;1.85;0.90;;;21.60;35.80;;;;;;5123113;27;20494;-36
2021/04/04 01:52:11;;;;;;;1.27;0.70;;;21.60;35.80;;;;;;5130957;27;20039;-37
2021/04/04 01:54:38;;;;;;;1.67;0.70;;;21.60;35.80;;;;;;5118189;27;20092;-37
2021/04/04 01:57:06;;;;;;;1.50;0.68;;;21.60;35.80;;;;;;5118678;27;20445;-37
2021/04/04 01:59:34;;;;;;;1.80;0.98;;;21.60;35.80;;;;;;5132141;27;20043;-36
2021/04/04 02:02:02;;;;;;;1.92;0.88;;;21.60;35.80;;;;;;5134405;27;20081;-37
2021/04/04 02:04:30;;;;;;;1.20;0.57;;;21.60;35.80;;;;;;5117291;27;20085;-36
2021/04/04 02:06:58;;;;;;;2.55;0.90;;;21.60;35.80;;;;;;5119888;27;20053;-36
2021/04/04 02:09:25;;;;;;;1.52;0.93;;;21.60;35.80;;;;;;5119062;27;20043;-37
2021/04/04 02:11:53;;;;;;;3.65;1.10;;;21.60;35.80;;;;;;5117589;27;20048;-36
2021/04/04 02:14:22;;;;;;;3.60;0.82;;;21.60;35.80;;;;;;5124672;27;20418;-36
2021/04/04 02:16:52;;;;;;;1.92;0.82;;;21.60;35.80;;;;;;5128577;27;20046;-37
2021/04/04 02:19:22;;;;;;;1.40;0.88;;;21.60;35.80;;;;;;5117555;27;20548;-36
2021/04/04 02:21:51;;;;;;;1.67;0.77;;;21.60;35.80;;;;;;5122083;27;20055;-36
2021/04/04 02:24:22;;;;;;;1.33;0.77;;;21.60;35.80;;;;;;5132319;27;20119;-37
2021/04/04 02:26:51;;;;;;;1.33;0.80;;;21.60;36.40;;;;;;5118910;27;20165;-37
2021/04/04 02:29:18;;;;;;;1.63;0.70;;;21.60;35.80;;;;;;5114409;27;20048;-37
2021/04/04 02:31:56;;;;;;;1.60;0.80;;;21.60;35.80;;;;;;5115049;27;20450;-38
2021/04/04 02:34:28;;;;;;;1.30;0.88;;;21.60;35.80;;;;;;5115563;27;20074;-37
2021/04/04 02:36:55;;;;;;;1.75;0.90;;;21.60;35.80;;;;;;5117567;27;20039;-39
2021/04/04 02:39:30;;;;;;;1.10;0.80;;;21.60;35.80;;;;;;5118574;27;20047;-37
2021/04/04 02:41:59;;;;;;;2.13;0.93;;;21.60;35.80;;;;;;5130544;27;20090;-38
2021/04/04 02:44:28;;;;;;;1.08;0.60;;;21.60;36.40;;;;;;5119836;27;20096;-37
2021/04/04 02:47:01;;;;;;;1.90;0.90;;;21.60;35.80;;;;;;5117123;27;20047;-37
2021/04/04 02:49:30;;;;;;;2.67;1.10;;;21.60;35.80;;;;;;5126967;27;20582;-38
2021/04/04 02:52:01;;;;;;;1.92;0.95;;;21.60;35.80;;;;;;5127366;27;20051;-37
2021/04/04 02:54:30;;;;;;;1.65;0.80;;;21.60;35.80;;;;;;5118214;27;20050;-38
2021/04/04 02:56:58;;;;;;;1.08;0.85;;;21.60;35.80;;;;;;5122467;27;20429;-37
2021/04/04 02:59:38;;;;;;;2.40;0.77;;;21.60;35.80;;;;;;5132920;27;20059;-37
2021/04/04 03:02:07;;;;;;;1.38;0.70;;;21.60;35.80;;;;;;5118109;27;20039;-38
2021/04/04 03:04:36;;;;;;;2.70;0.70;;;21.60;35.80;;;;;;5132457;27;20039;-37
2021/04/04 03:07:06;;;;;;;1.58;0.93;;;21.60;35.80;;;;;;5114671;27;20124;-37
2021/04/04 03:09:34;;;;;;;1.67;0.70;;;21.60;35.90;;;;;;5132987;27;20456;-38
2021/04/04 03:12:02;;;;;;;1.30;0.70;;;21.60;35.80;;;;;;5115381;27;20047;-37
2021/04/04 03:14:30;;;;;;;1.95;0.70;;;21.60;35.80;;;;;;5131124;27;20047;-37
2021/04/04 03:16:58;;;;;;;2.70;0.80;;;21.60;35.80;;;;;;5132357;27;20039;-37
2021/04/04 03:19:27;;;;;;;2.25;0.90;;;21.60;35.80;;;;;;5130393;27;20130;-38
2021/04/04 03:21:55;;;;;;;2.88;0.80;;;21.60;35.80;;;;;;5114073;28;20096;-38
2021/04/04 03:24:24;;;;;;;1.35;0.68;;;21.60;35.80;;;;;;5132340;27;20096;-39
2021/04/04 03:26:53;;;;;;;4.43;0.88;;;21.60;35.80;;;;;;5131479;27;20043;-37
2021/04/04 03:29:20;;;;;;;1.98;0.88;;;21.60;35.80;;;;;;5127581;27;20092;-37
2021/04/04 03:31:48;;;;;;;1.63;0.80;;;21.60;35.90;;;;;;5117764;27;20088;-37
2021/04/04 03:34:17;;;;;;;2.55;1.10;;;21.60;35.80;;;;;;5133760;27;20190;-37
2021/04/04 03:36:45;;;;;;;1.80;0.88;;;21.60;35.90;;;;;;5130919;27;20096;-38
2021/04/04 03:39:12;;;;;;;1.73;0.80;;;21.60;35.90;;;;;;5131998;28;20047;-37
2021/04/04 03:41:40;;;;;;;3.95;1.00;;;21.60;36.00;;;;;;5131905;27;20440;-37
2021/04/04 03:44:08;;;;;;;1.42;0.90;;;21.60;35.90;;;;;;5131262;27;20047;-37
2021/04/04 03:46:37;;;;;;;1.88;0.90;;;21.50;35.80;;;;;;5130939;27;20051;-37
2021/04/04 03:49:07;;;;;;;2.80;0.90;;;21.60;35.90;;;;;;5113735;28;20039;-37
2021/04/04 03:51:35;;;;;;;1.25;0.60;;;21.60;35.90;;;;;;5132585;27;20043;-38
2021/04/04 03:54:04;;;;;;;2.55;1.02;;;21.60;35.90;;;;;;5130528;27;20123;-37
2021/04/04 03:56:34;;;;;;;1.30;0.70;;;21.50;35.80;;;;;;5130908;27;20039;-37
2021/04/04 03:59:05;;;;;;;1.25;0.80;;;21.50;35.80;;;;;;5130830;27;20047;-37
2021/04/04 04:01:35;;;;;;;1.23;0.63;;;21.50;35.80;;;;;;5130927;27;20042;-37
2021/04/04 04:04:03;;;;;;;2.05;0.70;;;21.50;35.80;;;;;;5131661;27;20078;-37
2021/04/04 04:06:33;;;;;;;1.08;0.70;;;21.50;35.80;;;;;;5121329;27;20502;-37
2021/04/04 04:09:28;;;;;;;1.40;0.80;;;21.50;35.80;;;;;;5131879;28;20051;-37
2021/04/04 04:11:56;;;;;;;2.45;0.98;;;21.50;35.80;;;;;;5112512;27;20067;-37
2021/04/04 04:14:23;;;;;;;2.08;0.80;;;21.50;35.80;;;;;;5131229;28;20051;-37
2021/04/04 04:16:52;;;;;;;3.40;0.90;;;21.50;35.80;;;;;;5132758;27;20120;-37
2021/04/04 04:19:19;;;;;;;1.55;1.08;;;21.50;35.80;;;;;;5130506;27;20047;-37
2021/04/04 04:21:46;;;;;;;3.17;0.90;;;21.50;35.80;;;;;;5129919;27;20051;-37
2021/04/04 04:24:15;;;;;;;0.80;0.60;;;21.50;35.80;;;;;;5129774;27;20148;-37
2021/04/04 04:26:46;;;;;;;0.80;0.60;;;21.50;35.80;;;;;;5132025;27;20043;-37
2021/04/04 04:29:15;;;;;;;1.25;0.73;;;21.50;35.80;;;;;;5129470;27;20043;-37
2021/04/04 04:31:51;;;;;;;1.42;0.80;;;21.50;35.80;;;;;;5124149;27;20121;-37
2021/04/04 04:34:20;;;;;;;1.75;0.70;;;21.50;35.80;;;;;;5117520;27;20035;-37
2021/04/04 04:36:51;;;;;;;2.55;0.95;;;21.50;35.80;;;;;;5135864;27;20043;-37
2021/04/04 04:39:18;;;;;;;2.40;0.60;;;21.50;35.80;;;;;;5133326;27;20372;-38
2021/04/04 04:41:48;;;;;;;1.52;0.70;;;21.50;36.40;;;;;;5117876;27;20449;-37
2021/04/04 04:44:27;;;;;;;2.47;0.88;;;21.50;35.80;;;;;;5116907;27;20051;-37
2021/04/04 04:46:55;;;;;;;1.33;0.70;;;21.50;35.80;;;;;;5117483;27;20051;-38
2021/04/04 04:49:22;;;;;;;2.45;0.90;;;21.50;35.80;;;;;;5133378;27;20047;-37
2021/04/04 04:51:49;;;;;;;1.75;0.85;;;21.50;35.80;;;;;;5134008;27;20551;-37
2021/04/04 04:54:16;;;;;;;1.50;0.60;;;21.50;35.80;;;;;;5135232;27;20039;-37
2021/04/04 04:56:44;;;;;;;2.35;0.82;;;21.50;35.80;;;;;;5133864;27;20055;-37
2021/04/04 04:59:11;;;;;;;1.08;0.70;;;21.50;35.80;;;;;;5133536;27;20101;-37
2021/04/04 05:01:44;;;;;;;1.27;0.70;;;21.50;35.80;;;;;;5126359;27;20040;-37
2021/04/04 05:04:11;;;;;;;1.52;0.80;;;21.50;35.80;;;;;;5125234;27;20463;-37
2021/04/04 05:06:38;;;;;;;1.42;0.70;;;21.50;35.80;;;;;;5129976;27;20043;-37
2021/04/04 05:09:07;;;;;;;1.20;0.73;;;21.50;35.80;;;;;;5118958;27;20039;-37
2021/04/04 05:11:39;;;;;;;1.50;0.85;;;21.50;35.80;;;;;;5120484;27;20439;-37
2021/04/04 05:14:10;;;;;;;1.52;1.00;;;21.50;35.80;;;;;;5119034;27;20066;-37
2021/04/04 05:16:36;;;;;;;1.88;0.70;;;21.50;35.90;;;;;;5115785;27;20040;-37
2021/04/04 05:19:11;;;;;;;1.17;0.77;;;21.50;35.90;;;;;;5116740;27;20051;-37
2021/04/04 05:21:41;;;;;;;1.60;0.75;;;21.50;35.80;;;;;;5135458;27;20092;-37
2021/04/04 05:24:10;;;;;;;0.93;0.77;;;21.50;35.90;;;;;;5134519;27;20043;-37
2021/04/04 05:26:46;;;;;;;2.17;0.88;;;21.50;35.90;;;;;;5121157;27;20052;-37
2021/04/04 05:29:15;;;;;;;1.45;0.80;;;21.50;35.90;;;;;;5117041;27;20044;-37
2021/04/04 05:31:52;;;;;;;2.58;0.75;;;21.50;35.90;;;;;;5119971;27;20070;-37
2021/04/04 05:34:21;;;;;;;1.77;0.88;;;21.50;35.80;;;;;;5128550;27;20047;-37
2021/04/04 05:36:50;;;;;;;2.20;0.88;;;21.50;35.90;;;;;;5109631;27;20407;-37
2021/04/04 05:39:22;;;;;;;1.95;0.90;;;21.50;35.90;;;;;;5124482;27;20047;-37
2021/04/04 05:41:54;;;;;;;0.95;0.68;;;21.50;35.90;;;;;;5134387;27;20070;-37
2021/04/04 05:44:31;;;;;;;1.75;0.70;;;21.50;35.90;;;;;;5132893;27;20047;-38
2021/04/04 05:47:24;;;;;;;1.30;0.80;;;21.50;35.90;;;;;;5134063;27;20494;-37
2021/04/04 05:50:04;;;;;;;1.33;0.70;;;21.50;35.90;;;;;;5082862;27;20071;-37
2021/04/04 05:52:54;;;;;;;1.38;0.73;;;21.50;36.50;;;;;;5134435;27;20039;-37
2021/04/04 05:55:32;;;;;;;2.13;0.90;;;21.50;35.90;;;;;;5135108;27;20475;-37
2021/04/04 05:58:06;;;;;;;1.80;0.80;;;21.50;35.90;;;;;;5133733;27;20047;-37
2021/04/04 06:00:35;;;;;;;3.28;0.85;;;21.50;35.90;;;;;;5134112;27;20051;-37
2021/04/04 06:03:20;;;;;;;2.97;0.90;;;21.50;35.90;;;;;;5133921;27;20047;-37
2021/04/04 06:05:59;;;;;;;1.10;0.70;;;21.50;35.90;;;;;;5131996;27;20092;-38
2021/04/04 06:08:30;;;;;;;1.35;0.73;;;21.50;35.90;;;;;;5114209;27;20141;-38
2021/04/04 06:11:28;;;;;;;1.98;0.80;;;21.50;35.90;;;;;;5135316;27;20038;-38
2021/04/04 06:14:07;;;;;;;1.60;0.80;;;21.50;35.90;;;;;;5121006;27;20051;-38
2021/04/04 06:16:44;;;;;;;2.42;0.85;;;21.50;35.90;;;;;;5132567;27;21102;-38
2021/04/04 06:19:32;;;;;;;2.15;0.77;;;21.50;35.90;;;;;;5132476;27;20493;-37
2021/04/04 06:22:09;;;;;;;1.40;0.80;;;21.50;35.90;;;;;;5132574;27;20380;-37
2021/04/04 06:24:56;;;;;;;1.33;0.90;;;21.50;35.90;;;;;;5133787;27;20050;-37
2021/04/04 06:27:40;;;;;;;1.80;0.70;;;21.50;35.90;;;;;;5132275;27;20051;-37
2021/04/04 06:30:20;;;;;;;1.88;0.95;;;21.50;35.90;;;;;;5130227;27;20040;-38
2021/04/04 06:33:07;;;;;;;1.38;0.70;;;21.50;35.80;;;;;;5131933;27;20046;-38
2021/04/04 06:35:54;;;;;;;1.30;0.95;;;21.50;35.90;;;;;;5114475;27;20112;-37
2021/04/04 06:38:55;;;;;;;1.63;0.93;;;21.50;35.90;;;;;;5130698;27;20066;-37
2021/04/04 06:41:24;;;;;;;0.75;0.60;;;21.50;35.90;;;;;;5131626;27;20046;-37
2021/04/04 06:44:21;;;;;;;1.77;0.98;;;21.50;35.90;;;;;;5131864;27;20046;-38
2021/04/04 06:46:53;;;;;;;2.20;0.80;;;21.60;35.90;;;;;;5133490;27;20482;-38
2021/04/04 06:49:29;;;;;;;1.48;0.85;;;21.60;36.50;;;;;;5133075;27;20039;-38
2021/04/04 06:52:08;;;;;;;0.98;0.70;;;21.60;35.90;;;;;;5131109;27;20039;-37
2021/04/04 06:54:38;;;;;;;2.00;0.98;;;21.60;35.90;;;;;;5131735;27;20043;-37
2021/04/04 06:57:16;;;;;;;1.35;0.90;;;21.60;35.90;;;;;;5131766;27;20047;-37
2021/04/04 07:00:11;;;;;;;1.98;1.00;;;21.60;35.90;;;;;;5132745;27;20039;-37
2021/04/04 07:03:06;;;;;;;1.48;0.95;;;21.60;35.90;;;;;;5133187;27;20084;-38
2021/04/04 07:05:40;;;;;;;2.00;1.10;;;21.60;35.90;;;;;;5120300;27;20043;-37
2021/04/04 07:08:26;;;;;;;2.47;1.10;;;21.60;35.80;;;;;;5119747;27;20093;-37
2021/04/04 07:11:15;;;;;;;2.63;0.90;;;21.60;35.90;;;;;;5132771;27;20092;-37
2021/04/04 07:13:44;;;;;;;2.80;0.90;;;21.60;35.80;;;;;;5131061;27;20035;-37
2021/04/04 07:16:32;;;;;;;2.45;0.80;;;21.60;35.80;;;;;;5131668;27;20051;-37
2021/04/04 07:19:21;;;;;;;2.38;1.15;;;21.60;35.80;;;;;;5114053;27;20043;-37
2021/04/04 07:22:06;;;;;;;1.75;1.02;;;21.60;35.80;;;;;;5131155;27;20375;-37
2021/04/04 07:25:01;;;;;;;2.55;1.25;;;21.60;36.00;;;;;;5132853;27;20403;-37
2021/04/04 07:27:58;;;;;;;3.50;1.10;;;21.60;35.80;;;;;;5124544;27;20089;-37
2021/04/04 07:30:39;;;;;;;1.35;0.93;;;21.60;35.80;;;;;;5122956;27;20514;-37
2021/04/04 07:33:43;;;;;;;1.50;0.95;;;21.60;35.80;;;;;;5131440;27;20054;-37
2021/04/04 07:36:21;;;;;;;2.10;0.93;;;21.60;35.80;;;;;;5132795;27;20046;-37
2021/04/04 07:38:59;;;;;;;1.48;0.95;;;21.60;35.80;;;;;;5113186;28;20051;-37
2021/04/04 07:41:43;;;;;;;2.40;1.10;;;21.60;35.80;;;;;;5118970;27;20077;-37
2021/04/04 07:44:23;;;;;;;3.50;1.25;;;21.60;35.80;;;;;;5127212;27;20085;-37
2021/04/04 07:47:05;;;;;;;1.70;1.00;;;21.60;35.80;;;;;;5122069;27;20461;-37
2021/04/04 07:49:58;;;;;;;2.20;1.13;;;21.70;35.90;;;;;;5128082;27;20047;-37
2021/04/04 07:52:46;;;;;;;3.20;1.10;;;21.70;35.80;;;;;;5131409;27;20448;-37
2021/04/04 07:55:45;;;;;;;2.70;0.80;;;21.70;35.80;;;;;;5131990;27;20039;-38
2021/04/04 07:58:31;;;;;;;2.88;0.90;;;21.70;35.80;;;;;;5133111;27;20096;-37
2021/04/04 08:01:33;;;;;;;1.55;1.00;;;21.70;35.90;;;;;;5133405;27;20047;-37
2021/04/04 08:04:11;;;;;;;2.85;1.20;;;21.70;35.80;;;;;;5115096;27;20047;-38
2021/04/04 08:06:48;;;;;;;3.15;0.90;;;21.70;35.80;;;;;;5134261;27;20047;-37
2021/04/04 08:09:33;;;;;;;2.13;0.80;;;21.70;35.80;;;;;;5134798;27;20126;-37
2021/04/04 08:12:35;;;;;;;2.28;1.10;;;21.70;35.70;;;;;;5117070;27;20105;-37
2021/04/04 08:15:33;;;;;;;1.27;0.88;;;21.70;35.70;;;;;;5055304;28;20036;-37
2021/04/04 08:18:00;;;;;;;2.15;1.27;;;21.70;35.70;;;;;;5037191;28;20052;-37
2021/04/04 08:20:59;;;;;;;1.80;1.20;;;21.70;35.60;;;;;;5037539;28;20126;-36
2021/04/04 08:23:30;;;;;;;1.50;0.90;;;21.70;35.60;;;;;;5028571;28;20398;-37
2021/04/04 08:26:05;;;;;;;2.83;1.10;;;21.70;35.60;;;;;;5036263;28;20044;-38
2021/04/04 08:28:43;;;;;;;3.58;0.80;;;21.70;35.60;;;;;;5037499;28;20150;-37
2021/04/04 08:31:20;;;;;;;1.00;0.90;;;21.70;35.60;;;;;;5047916;28;20544;-37
2021/04/04 08:34:05;;;;;;;3.08;1.02;;;21.70;35.60;;;;;;5053694;28;20095;-37
2021/04/04 08:36:36;;;;;;;2.42;0.98;;;21.70;35.60;;;;;;5036348;28;20090;-37
2021/04/04 08:39:05;;;;;;;2.97;0.85;;;21.70;35.60;;;;;;5052694;28;20065;-37
2021/04/04 08:41:35;;;;;;;1.73;0.95;;;21.80;35.60;;;;;;5034575;28;20441;-37
2021/04/04 08:44:09;;;;;;;1.98;0.90;;;21.80;35.60;;;;;;5051372;28;20076;-37
2021/04/04 08:46:44;;;;;;;1.52;1.10;;;21.80;35.70;;;;;;5036939;28;20055;-38
2021/04/04 08:49:13;;;;;;;1.45;0.90;;;21.80;35.70;;;;;;5050359;28;20085;-37
2021/04/04 08:51:44;;;;;;;2.03;1.10;;;21.80;35.70;;;;;;5127407;27;20050;-37
2021/04/04 08:54:19;;;;;;;3.28;1.30;;;21.80;35.70;;;;;;5116725;27;20043;-37
2021/04/04 08:56:48;;;;;;;1.45;1.00;;;21.80;35.70;;;;;;5133753;27;20084;-37
2021/04/04 08:59:19;;;;;;;1.60;0.90;;;21.80;35.70;;;;;;5133606;27;20085;-37
2021/04/04 09:01:53;;;;;;;1.23;0.70;;;21.80;35.60;;;;;;5134129;27;20043;-37
2021/04/04 09:04:23;;;;;;;;;;;21.80;35.70;;;;;;5117987;27;20475;-38
2021/04/04 09:06:52;;;;;;;2.08;1.05;;;21.80;35.60;;;;;;5133968;27;20403;-37
2021/04/04 09:09:20;;;;;;;2.10;1.10;;;21.80;35.60;;;;;;5133666;27;20036;-37
2021/04/04 09:11:50;;;;;;;2.35;1.00;;;21.80;35.70;;;;;;5134453;27;20040;-37
2021/04/04 09:14:18;;;;;;;1.77;0.95;;;21.80;35.60;;;;;;5117431;27;20043;-37
2021/04/04 09:16:55;;;;;;;1.27;0.70;;;21.80;35.60;;;;;;5133509;27;20047;-37
2021/04/04 09:19:43;;;;;;;1.60;0.77;;;21.80;35.70;;;;;;5133970;27;20073;-38
2021/04/04 09:22:23;;;;;;;3.00;1.02;;;21.80;35.60;;;;;;5133096;27;20043;-37
2021/04/04 09:25:10;;;;;;;1.17;0.77;;;21.80;35.50;;;;;;5132660;27;20055;-37
2021/04/04 09:27:41;;;;;;;1.13;0.85;;;21.90;35.60;;;;;;5132611;27;20120;-37
2021/04/04 09:30:33;;;;;;;1.45;0.88;;;21.90;35.60;;;;;;5123771;27;20046;-37
2021/04/04 09:33:05;;;;;;;3.58;1.13;;;21.90;35.50;;;;;;5132492;27;20521;-37
2021/04/04 09:35:32;;;;;;;2.45;1.20;;;21.90;35.50;;;;;;5133512;27;20039;-37
2021/04/04 09:38:14;;;;;;;1.58;0.90;;;21.90;35.50;;;;;;5134664;27;20050;-37
2021/04/04 09:40:42;;;;;;;1.85;1.00;;;21.90;35.50;;;;;;5133013;27;20093;-37
2021/04/04 09:43:14;;;;;;;1.92;0.90;;;21.90;35.50;;;;;;5132775;27;20053;-37
2021/04/04 09:45:41;;;;;;;1.70;0.95;;;21.90;35.50;;;;;;5134573;27;20051;-37
2021/04/04 09:48:23;;;;;;;1.42;0.85;;;21.90;35.40;;;;;;5132828;27;20051;-37
2021/04/04 09:51:12;;;;;;;1.17;0.77;;;21.90;35.40;;;;;;5131826;27;20421;-37
2021/04/04 09:53:42;;;;;;;1.63;0.80;;;21.90;35.40;;;;;;5133667;27;20039;-37
2021/04/04 09:56:16;;;;;;;1.38;0.82;;;21.90;35.40;;;;;;5132673;27;20043;-37
2021/04/04 09:58:47;;;;;;;1.95;1.02;;;21.90;35.40;;;;;;5117125;27;20132;-37
2021/04/04 10:01:22;;;;;;;1.20;0.70;;;21.90;35.40;;;;;;5132756;27;20054;-37
2021/04/04 10:04:04;;;;;;;1.35;0.90;;;21.90;35.40;;;;;;5128119;27;20047;-36
2021/04/04 10:06:32;;;;;;;0.95;0.70;;;21.90;35.40;;;;;;5122490;27;20039;-37
2021/04/04 10:09:02;;;;;;;1.73;0.90;;;21.90;35.40;;;;;;5133596;27;20047;-37
2021/04/04 10:11:29;;;;;;;1.50;0.80;;;21.90;35.40;;;;;;5132740;27;20161;-37
2021/04/04 10:14:12;;;;;;;3.05;0.80;;;21.90;35.30;;;;;;5117984;27;20066;-37
2021/04/04 10:16:40;;;;;;;1.42;0.88;;;21.90;35.30;;;;;;5116685;27;20039;-37
2021/04/04 10:19:06;;;;;;;1.45;0.70;;;21.90;35.30;;;;;;5114845;27;20445;-37
2021/04/04 10:21:39;;;;;;;2.70;0.70;;;21.90;35.40;;;;;;5132816;27;20047;-37
2021/04/04 10:24:26;;;;;;;1.80;0.93;;;21.90;35.20;;;;;;5132905;27;20134;-37
2021/04/04 10:27:19;;;;;;;4.50;0.85;;;22.00;35.20;;;;;;5131944;27;20067;-37
2021/04/04 10:29:49;;;;;;;1.77;0.88;;;21.90;35.20;;;;;;5126040;27;20043;-37
2021/04/04 10:32:26;;;;;;;1.58;0.80;;;22.00;35.30;;;;;;5116943;27;20063;-37
2021/04/04 10:34:53;;;;;;;1.05;0.88;;;22.00;35.20;;;;;;5132576;27;20047;-38
2021/04/04 10:37:29;;;;;;;1.42;0.90;;;21.90;35.20;;;;;;5132972;27;20050;-36
2021/04/04 10:40:00;;;;;;;1.42;0.90;;;22.00;35.20;;;;;;5120239;27;20047;-37
2021/04/04 10:42:27;;;;;;;1.65;1.00;;;22.00;35.20;;;;;;5117904;27;20097;-36
2021/04/04 10:45:17;;;;;;;2.72;0.90;;;22.00;35.20;;;;;;5126850;27;20074;-36
2021/04/04 10:47:45;;;;;;;1.70;1.00;;;22.00;35.20;;;;;;5133284;27;20043;-36
2021/04/04 10:50:15;;;;;;;1.20;0.70;;;21.90;35.10;;;;;;5124588;27;20040;-36
2021/04/04 10:52:43;;;;;;;1.63;1.00;;;21.90;35.00;;;;;;5124286;27;20126;-37
2021/04/04 10:55:12;;;;;;;1.77;0.80;;;22.00;35.10;;;;;;5125652;27;20048;-37
2021/04/04 10:57:39;;;;;;;1.38;0.75;;;22.00;35.10;;;;;;5118227;27;20039;-37
2021/04/04 11:00:11;;;;;;;1.70;1.00;;;22.00;35.00;;;;;;5118246;27;20453;-36
2021/04/04 11:02:39;;;;;;;3.58;0.82;;;22.00;35.00;;;;;;5116809;27;20489;-36
2021/04/04 11:05:07;;;;;;;0.95;0.80;;;22.00;35.00;;;;;;5116589;27;20425;-36
2021/04/04 11:07:35;;;;;;;1.48;0.90;;;22.00;35.00;;;;;;5132245;27;20126;-36
2021/04/04 11:10:06;;;;;;;1.13;0.80;;;22.00;35.00;;;;;;5116315;27;20075;-37
2021/04/04 11:12:35;;;;;;;2.08;1.02;;;22.00;35.00;;;;;;5116907;27;20052;-36
2021/04/04 11:15:04;;;;;;;6.22;1.20;;;22.00;34.90;;;;;;5117017;27;20048;-36
2021/04/04 11:17:33;;;;;;;0.90;0.60;;;22.00;34.90;;;;;;5117153;27;20105;-36
2021/04/04 11:20:04;;;;;;;1.17;0.80;;;22.00;34.90;;;;;;5128503;27;20054;-37
2021/04/04 11:22:32;;;;;;;1.15;0.75;;;22.00;34.90;;;;;;5132854;27;20051;-36
2021/04/04 11:25:03;;;;;;;1.90;0.95;;;22.00;34.90;;;;;;5133533;27;20051;-37
2021/04/04 11:27:57;;;;;;;1.20;0.80;;;22.00;34.80;;;;;;5132179;27;20045;-37
2021/04/04 11:30:29;;;;;;;1.83;0.82;;;22.00;34.80;;;;;;5125773;27;20047;-37
2021/04/04 11:33:18;;;;;;;2.80;0.85;;;22.00;34.70;;;;;;5132325;27;20084;-37
2021/04/04 11:36:11;;;;;;;2.25;0.90;;;22.00;34.70;;;;;;5132315;27;20035;-37
2021/04/04 11:38:39;;;;;;;2.33;0.80;;;22.00;34.70;;;;;;5124764;27;20039;-36
2021/04/04 11:41:23;;;;;;;2.85;1.08;;;22.00;34.70;;;;;;5136882;27;20047;-37
2021/04/04 11:43:54;;;;;;;1.85;1.13;;;22.00;34.70;;;;;;5134202;27;20047;-37
2021/04/04 11:46:43;;;;;;;1.13;0.73;;;22.00;34.70;;;;;;5135345;27;20126;-37
2021/04/04 11:49:32;;;;;;;3.13;0.85;;;22.00;34.60;;;;;;5134011;27;20519;-36
2021/04/04 11:52:20;;;;;;;2.03;1.08;;;22.00;34.60;;;;;;5135247;27;20054;-37
2021/04/04 11:54:50;;;;;;;3.40;0.80;;;22.00;34.70;;;;;;5135064;27;20065;-36
2021/04/04 11:57:24;;;;;;;1.55;1.00;;;22.00;34.70;;;;;;5136614;27;20096;-36
2021/04/04 11:59:54;;;;;;;2.55;0.70;;;22.00;34.60;;;;;;5134694;27;20055;-36
2021/04/04 12:02:23;;;;;;;1.55;0.80;;;22.00;34.60;;;;;;5134097;27;20043;-36
2021/04/04 12:05:05;;;;;;;2.13;1.15;;;22.00;34.50;;;;;;5136197;27;20039;-37
2021/04/04 12:07:43;;;;;;;2.25;1.10;;;22.00;34.50;;;;;;5124104;27;20455;-36
2021/04/04 12:10:12;;;;;;;1.55;0.90;;;22.00;34.50;;;;;;5134898;27;20043;-37
2021/04/04 12:12:40;;;;;;;1.40;0.70;;;22.00;34.50;;;;;;5135680;27;20051;-37
2021/04/04 12:15:09;;;;;;;1.65;0.88;;;22.00;34.40;;;;;;5135198;27;20071;-36
2021/04/04 12:17:36;;;;;;;1.13;0.85;;;22.00;34.40;;;;;;5135765;27;20043;-37
2021/04/04 12:20:04;;;;;;;2.38;1.00;;;22.00;34.30;;;;;;5135327;27;20069;-37
2021/04/04 12:22:41;;;;;;;1.23;0.70;;;22.00;34.30;;;;;;5133361;27;20043;-37
2021/04/04 12:25:16;;;;;;;1.35;0.80;;;22.00;34.30;;;;;;5134298;27;20051;-36
2021/04/04 12:27:45;;;;;;;3.25;0.80;;;22.00;34.30;;;;;;5135827;27;20100;-37
2021/04/04 12:30:33;;;;;;;2.58;0.88;;;22.00;34.30;;;;;;5124318;27;20051;-36
2021/04/04 12:33:05;;;;;;;3.05;1.00;;;22.00;34.30;;;;;;5128728;27;20039;-37
2021/04/04 12:35:33;;;;;;;2.53;0.90;;;22.00;34.30;;;;;;5134261;27;20058;-37
2021/04/04 12:38:02;;;;;;;1.17;0.82;;;22.00;34.20;;;;;;5135845;27;20452;-36
2021/04/04 12:40:29;;;;;;;1.00;0.82;;;22.00;34.20;;;;;;5134511;27;20078;-37
2021/04/04 12:43:01;;;;;;;3.05;1.00;;;22.00;34.20;;;;;;5133220;27;20421;-36
2021/04/04 12:45:37;;;;;;;1.63;0.93;;;22.00;34.20;;;;;;5117376;27;20051;-37
2021/04/04 12:48:17;;;;;;;1.70;0.93;;;22.00;34.10;;;;;;5133217;27;20096;-38
2021/04/04 12:50:50;;;;;;;3.60;1.10;;;22.00;34.10;;;;;;5100395;27;20077;-37
2021/04/04 12:53:36;;;;;;;1.50;0.80;;;22.00;34.10;;;;;;5133801;27;20035;-37
2021/04/04 12:56:04;;;;;;;1.55;0.90;;;22.10;34.20;;;;;;5120444;27;20046;-37
2021/04/04 12:58:36;;;;;;;2.35;0.95;;;22.00;34.10;;;;;;5117186;27;20035;-37
2021/04/04 13:01:05;;;;;;;0.90;0.70;;;22.10;34.20;;;;;;5116180;27;20130;-37
2021/04/04 13:03:36;;;;;;;1.48;0.75;;;22.10;34.10;;;;;;5133147;27;20418;-38
2021/04/04 13:06:05;;;;;;;1.02;0.73;;;22.10;34.70;;;;;;5130143;27;20079;-37
2021/04/04 13:08:37;;;;;;;1.48;0.90;;;22.10;34.10;;;;;;5133166;27;20047;-37
2021/04/04 13:11:08;;;;;;;1.60;1.02;;;22.10;34.10;;;;;;5133769;27;20118;-37
2021/04/04 13:13:36;;;;;;;1.15;0.90;;;22.10;34.10;;;;;;5117986;27;20047;-37
2021/04/04 13:16:08;;;;;;;1.77;1.13;;;22.10;34.10;;;;;;5105421;28;20096;-37
2021/04/04 13:18:45;;;;;;;2.38;1.00;;;22.10;34.00;;;;;;5120283;27;20046;-37
2021/04/04 13:21:28;;;;;;;2.03;0.90;;;22.10;34.00;;;;;;5115025;27;20108;-37
2021/04/04 13:24:00;;;;;;;0.75;0.70;;;22.10;34.30;;;;;;5115063;27;20051;-37